Time;durP1;ratioP1;P1;durP2;ratioP2;P2;SDS_P1;SDS_P2;PMS_P1;PMS_P2;Temp;Humidity;BMP_temperature;BMP_pressure;BME280_temperature;BME280_humidity;BME280_pressure;Samples;Min_cycle;Max_cycle;Signal;HPM_P1;HPM_P2
2023/10/06 00:02:20;;;;;;;1646.55;999.90;;;27.80;99.90;;;;;;5085170;28;20020;-67
2023/10/06 00:04:47;;;;;;;1694.78;999.90;;;27.80;99.90;;;;;;5097396;28;20016;-68
2023/10/06 00:07:15;;;;;;;1672.75;999.90;;;27.90;99.90;;;;;;5089118;28;20035;-68
2023/10/06 00:09:44;;;;;;;1692.55;999.90;;;28.00;99.90;;;;;;5083658;28;20407;-69
2023/10/06 00:12:13;;;;;;;1677.28;999.90;;;28.00;99.90;;;;;;5076192;28;20481;-69
2023/10/06 00:14:42;;;;;;;1671.00;999.90;;;28.00;99.90;;;;;;5076822;28;20422;-70
2023/10/06 00:17:15;;;;;;;1670.95;999.90;;;28.10;99.90;;;;;;5076865;28;20164;-70
2023/10/06 00:19:43;;;;;;;1667.38;999.90;;;28.20;99.90;;;;;;5077186;28;20027;-68
2023/10/06 00:24:37;;;;;;;1646.43;999.90;;;28.20;99.90;;;;;;5077012;28;20391;-68
2023/10/06 00:27:10;;;;;;;1660.72;999.90;;;28.30;99.90;;;;;;5077115;28;20063;-69
2023/10/06 00:29:43;;;;;;;1656.22;999.90;;;28.30;99.90;;;;;;5077005;28;20021;-67
2023/10/06 00:32:22;;;;;;;1589.18;999.90;;;28.30;99.90;;;;;;5077118;28;20443;-69
2023/10/06 00:34:50;;;;;;;1617.50;999.90;;;28.40;99.90;;;;;;5077191;28;20016;-67
2023/10/06 00:37:22;;;;;;;1638.65;999.90;;;28.40;99.90;;;;;;5079206;28;20379;-68
2023/10/06 00:39:56;;;;;;;1633.23;999.90;;;28.40;99.90;;;;;;5083400;28;20036;-69
2023/10/06 00:42:23;;;;;;;1641.35;999.90;;;28.40;99.90;;;;;;5076383;28;20047;-69
2023/10/06 00:44:50;;;;;;;1637.05;999.90;;;28.50;99.90;;;;;;5076579;28;20112;-69
2023/10/06 00:47:17;;;;;;;1641.88;999.90;;;28.50;99.90;;;;;;5075396;28;20045;-69
2023/10/06 00:49:44;;;;;;;1616.25;999.90;;;28.60;99.90;;;;;;5076371;28;20073;-69
2023/10/06 00:52:12;;;;;;;1659.55;999.90;;;28.70;99.90;;;;;;5077024;28;20054;-69
2023/10/06 00:54:43;;;;;;;1645.00;999.90;;;28.70;99.90;;;;;;5075727;28;20101;-71
2023/10/06 00:57:18;;;;;;;1615.28;999.90;;;28.80;99.90;;;;;;5076998;28;20114;-70
2023/10/06 00:59:45;;;;;;;1629.53;999.90;;;28.90;99.90;;;;;;5092199;28;20027;-69
2023/10/06 01:02:14;;;;;;;1627.43;999.90;;;29.00;99.90;;;;;;5096128;28;20490;-70
2023/10/06 01:04:52;;;;;;;1615.63;999.90;;;29.00;99.90;;;;;;5095608;28;20103;-70
2023/10/06 01:07:19;;;;;;;1616.97;999.90;;;29.10;99.90;;;;;;5089312;28;20028;-70
2023/10/06 01:10:14;;;;;;;1603.85;999.90;;;29.10;99.90;;;;;;5087600;28;20379;-69
2023/10/06 01:12:41;;;;;;;1602.18;999.90;;;29.20;99.90;;;;;;5089166;28;20047;-70
2023/10/06 01:15:19;;;;;;;1566.82;999.90;;;29.30;99.90;;;;;;5089912;28;20524;-68
2023/10/06 01:17:53;;;;;;;1582.13;999.90;;;29.40;99.90;;;;;;5094520;28;20024;-67
2023/10/06 01:20:41;;;;;;;1613.60;999.90;;;29.50;99.90;;;;;;5095788;28;20024;-70
2023/10/06 01:23:12;;;;;;;1558.10;999.90;;;29.60;99.90;;;;;;5084256;28;20028;-66
2023/10/06 01:25:39;;;;;;;1588.40;999.90;;;29.70;99.90;;;;;;5077760;28;20141;-66
2023/10/06 01:28:12;;;;;;;1560.57;999.90;;;29.70;99.90;;;;;;5096500;28;20050;-65
2023/10/06 01:30:38;;;;;;;1563.20;999.90;;;29.70;99.90;;;;;;5095938;28;20017;-65
2023/10/06 01:33:05;;;;;;;1569.72;999.90;;;29.80;99.90;;;;;;5095982;28;20016;-66
2023/10/06 01:35:34;;;;;;;1558.07;999.90;;;29.90;99.90;;;;;;5095925;28;20034;-65
2023/10/06 01:38:01;;;;;;;1568.88;999.90;;;29.90;99.90;;;;;;5096004;28;20023;-66
2023/10/06 01:42:57;;;;;;;1583.72;999.90;;;29.90;99.90;;;;;;5088348;28;20421;-65
2023/10/06 01:45:24;;;;;;;1585.53;999.90;;;29.90;99.90;;;;;;5082775;28;20027;-65
2023/10/06 01:48:10;;;;;;;1578.70;999.90;;;30.00;99.90;;;;;;5077278;28;20458;-65
2023/10/06 01:50:36;;;;;;;1570.05;999.90;;;30.00;99.90;;;;;;5086998;28;20059;-66
2023/10/06 01:53:07;;;;;;;1568.75;999.90;;;30.10;99.90;;;;;;5086720;28;20024;-69
2023/10/06 01:55:39;;;;;;;1571.55;999.90;;;30.10;99.90;;;;;;5096743;28;20103;-69
2023/10/06 01:58:11;;;;;;;1563.45;999.90;;;30.10;99.90;;;;;;5097290;28;20263;-65
2023/10/06 02:00:38;;;;;;;1568.00;999.90;;;30.10;99.90;;;;;;5096535;28;20027;-66
2023/10/06 02:03:16;;;;;;;1580.45;999.90;;;30.10;99.90;;;;;;5096337;28;20028;-67
2023/10/06 02:05:44;;;;;;;1568.97;999.90;;;30.10;99.90;;;;;;5095112;28;20099;-68
2023/10/06 02:08:14;;;;;;;1566.80;999.90;;;30.20;99.90;;;;;;5091459;28;21583;-68
2023/10/06 02:10:43;;;;;;;1559.60;999.90;;;30.30;99.90;;;;;;5089160;28;20016;-67
2023/10/06 02:13:09;;;;;;;1570.45;999.90;;;30.30;99.90;;;;;;5091292;28;20024;-67
2023/10/06 02:15:39;;;;;;;1583.13;999.90;;;30.30;99.90;;;;;;5085207;28;20128;-68
2023/10/06 02:18:12;;;;;;;1592.07;999.90;;;30.30;99.90;;;;;;5083345;28;20012;-68
2023/10/06 02:20:41;;;;;;;1530.80;999.90;;;30.40;99.90;;;;;;5080149;28;20125;-68
2023/10/06 02:23:08;;;;;;;1545.38;999.90;;;30.40;99.90;;;;;;5090010;28;20546;-68
2023/10/06 02:25:37;;;;;;;1450.60;999.90;;;30.50;99.90;;;;;;5070877;28;20150;-68
2023/10/06 02:28:05;;;;;;;1551.80;999.90;;;30.60;99.90;;;;;;5088670;28;20020;-69
2023/10/06 02:30:37;;;;;;;1600.60;999.90;;;30.60;99.90;;;;;;5091593;28;20028;-70
2023/10/06 02:33:05;;;;;;;;;;;30.70;99.90;;;;;;5089145;28;20024;-68
2023/10/06 02:35:36;;;;;;;1615.78;999.90;;;30.70;99.90;;;;;;5071218;28;20366;-68
2023/10/06 02:38:06;;;;;;;1594.65;999.90;;;30.70;99.90;;;;;;5083897;28;20034;-68
2023/10/06 02:41:06;;;;;;;1623.00;999.90;;;30.70;99.90;;;;;;5082863;28;20020;-69
2023/10/06 02:43:27;;;;;;;1629.38;999.90;;;30.80;99.90;;;;;;5085843;28;20039;-68
2023/10/06 02:46:03;;;;;;;1637.13;999.90;;;30.80;99.90;;;;;;5085825;28;20050;-68
2023/10/06 02:48:33;;;;;;;1647.82;999.90;;;30.90;99.90;;;;;;5082687;28;20103;-67
2023/10/06 02:51:01;;;;;;;1645.95;999.90;;;30.90;99.90;;;;;;5079906;28;20099;-67
2023/10/06 02:53:35;;;;;;;1654.03;999.90;;;30.90;99.90;;;;;;5079384;28;20054;-65
2023/10/06 02:56:07;;;;;;;1633.88;999.90;;;30.90;99.90;;;;;;5084941;28;20023;-65
2023/10/06 02:58:35;;;;;;;1630.75;999.90;;;30.90;99.90;;;;;;5082020;28;20099;-67
2023/10/06 03:01:04;;;;;;;1660.32;999.90;;;31.00;99.90;;;;;;5088910;28;20995;-66
2023/10/06 03:03:33;;;;;;;1676.68;999.90;;;31.10;99.90;;;;;;5083558;28;20040;-69
2023/10/06 03:06:07;;;;;;;1662.35;999.90;;;31.10;99.90;;;;;;5083956;28;20082;-65
2023/10/06 03:08:35;;;;;;;1672.15;999.90;;;31.20;99.90;;;;;;5083856;28;20037;-67
2023/10/06 03:11:03;;;;;;;1679.35;999.90;;;31.20;99.90;;;;;;5083500;28;20024;-65
2023/10/06 03:13:35;;;;;;;1680.13;999.90;;;31.20;99.90;;;;;;5078387;28;20108;-65
2023/10/06 03:16:10;;;;;;;1657.38;999.90;;;31.30;99.90;;;;;;5087109;28;20383;-67
2023/10/06 03:18:39;;;;;;;1672.78;999.90;;;31.30;99.90;;;;;;5081980;28;20023;-66
2023/10/06 03:23:38;;;;;;;1678.28;999.90;;;31.30;99.90;;;;;;5083517;28;20095;-70
2023/10/06 03:28:52;;;;;;;1644.47;999.90;;;31.40;99.90;;;;;;5085544;28;20097;-66
2023/10/06 03:33:50;;;;;;;1654.78;999.90;;;31.50;99.90;;;;;;5089494;28;20015;-66
2023/10/06 03:36:26;;;;;;;1637.80;999.90;;;31.60;99.90;;;;;;5084275;28;20091;-66
2023/10/06 03:39:06;;;;;;;1604.50;999.90;;;31.70;99.90;;;;;;5083506;28;20017;-68
2023/10/06 03:41:36;;;;;;;1586.93;999.90;;;31.70;99.90;;;;;;5066369;28;20032;-67
2023/10/06 03:44:04;;;;;;;1597.00;999.90;;;31.60;99.90;;;;;;5081199;28;20021;-65
2023/10/06 03:46:38;;;;;;;1598.03;999.90;;;31.80;99.90;;;;;;5082232;28;20040;-65
2023/10/06 03:49:05;;;;;;;1580.88;999.90;;;31.90;99.90;;;;;;5087699;28;20375;-67
2023/10/06 03:51:38;;;;;;;1593.60;999.90;;;32.00;99.90;;;;;;5087228;28;20024;-67
2023/10/06 03:54:05;;;;;;;1583.90;999.90;;;32.10;99.90;;;;;;5082193;28;20504;-66
2023/10/06 03:56:32;;;;;;;1587.85;999.90;;;32.20;99.90;;;;;;5085225;28;20020;-66
2023/10/06 03:59:05;;;;;;;1590.43;999.90;;;32.20;99.90;;;;;;5087135;28;20031;-66
2023/10/06 04:01:32;;;;;;;1585.05;999.90;;;32.20;99.90;;;;;;5083942;28;20032;-65
2023/10/06 04:03:59;;;;;;;1586.47;999.90;;;32.30;99.90;;;;;;5088261;28;20368;-67
2023/10/06 04:06:27;;;;;;;1592.93;999.90;;;32.50;99.90;;;;;;5083641;28;20052;-66
2023/10/06 04:08:56;;;;;;;1596.20;999.90;;;32.50;99.90;;;;;;5087652;28;20059;-68
2023/10/06 04:11:29;;;;;;;1603.82;999.90;;;32.60;99.90;;;;;;5088097;28;20023;-66
2023/10/06 04:13:56;;;;;;;1594.85;999.90;;;32.60;99.90;;;;;;5086926;28;20047;-65
2023/10/06 04:16:23;;;;;;;1557.13;999.90;;;32.80;99.90;;;;;;5088623;28;20058;-65
2023/10/06 04:18:50;;;;;;;1577.50;999.90;;;32.90;99.90;;;;;;5082472;28;20043;-65
2023/10/06 04:21:17;;;;;;;1571.85;999.90;;;33.00;99.90;;;;;;5081475;28;20032;-65
2023/10/06 04:23:43;;;;;;;1568.38;999.90;;;33.10;99.90;;;;;;5090017;28;20678;-66
2023/10/06 04:26:14;;;;;;;1592.10;999.90;;;33.20;99.90;;;;;;5083217;28;20488;-66
2023/10/06 04:28:41;;;;;;;1587.60;999.90;;;33.30;99.90;;;;;;5084893;28;20078;-66
2023/10/06 04:31:08;;;;;;;1588.70;999.90;;;33.40;99.90;;;;;;5086666;28;20066;-66
2023/10/06 04:33:35;;;;;;;1591.72;999.90;;;33.40;99.90;;;;;;5094892;28;20016;-67
2023/10/06 04:36:07;;;;;;;1600.95;999.90;;;33.60;99.90;;;;;;5087604;28;20078;-67
2023/10/06 04:38:37;;;;;;;1596.38;999.90;;;33.60;99.90;;;;;;5091401;28;20084;-67
2023/10/06 04:41:08;;;;;;;1595.47;999.90;;;33.70;99.90;;;;;;5086687;28;20100;-67
2023/10/06 04:43:45;;;;;;;1598.15;999.90;;;33.80;99.30;;;;;;5085473;28;20383;-66
2023/10/06 04:46:13;;;;;;;1597.25;999.90;;;33.80;99.10;;;;;;5092947;28;20270;-66
2023/10/06 04:48:39;;;;;;;1586.20;999.90;;;33.90;99.10;;;;;;5089213;28;20036;-67
2023/10/06 04:51:09;;;;;;;1608.07;999.90;;;33.90;99.00;;;;;;5075493;28;20024;-67
2023/10/06 04:53:36;;;;;;;1589.03;999.90;;;33.80;97.80;;;;;;5079107;28;20130;-66
2023/10/06 04:56:04;;;;;;;1584.10;999.90;;;33.80;97.50;;;;;;5081133;28;20025;-67
2023/10/06 04:58:31;;;;;;;1572.65;999.90;;;33.70;97.20;;;;;;5088947;28;20115;-69
2023/10/06 05:01:00;;;;;;;1585.15;999.90;;;33.80;97.70;;;;;;5084823;28;20029;-67
2023/10/06 05:03:27;;;;;;;1587.85;999.90;;;33.70;98.50;;;;;;5084047;28;20032;-66
2023/10/06 05:05:57;;;;;;;1575.40;999.90;;;33.70;98.90;;;;;;5085791;28;20027;-67
2023/10/06 05:08:26;;;;;;;1582.22;999.90;;;33.80;98.90;;;;;;5085395;28;20099;-68
2023/10/06 05:10:55;;;;;;;1584.20;999.90;;;33.90;98.60;;;;;;5084232;28;20070;-67
2023/10/06 05:13:22;;;;;;;1584.25;999.90;;;33.90;97.80;;;;;;5084777;28;20027;-68
2023/10/06 05:15:50;;;;;;;1610.15;999.90;;;34.00;97.80;;;;;;5085884;28;20031;-67
2023/10/06 05:18:16;;;;;;;1610.40;999.90;;;34.10;97.90;;;;;;5084414;28;20070;-69
2023/10/06 05:20:43;;;;;;;1614.38;999.90;;;34.10;97.70;;;;;;5088513;28;20116;-68
2023/10/06 05:23:14;;;;;;;1599.35;999.90;;;34.20;96.00;;;;;;5088482;28;20038;-68
2023/10/06 05:25:42;;;;;;;1588.10;999.90;;;34.30;95.70;;;;;;5087922;28;20058;-65
2023/10/06 05:28:10;;;;;;;1596.30;999.90;;;34.40;95.20;;;;;;5087692;28;20028;-67
2023/10/06 05:30:38;;;;;;;1589.10;999.90;;;34.50;94.90;;;;;;5085588;28;20091;-67
2023/10/06 05:33:05;;;;;;;1599.93;999.90;;;34.50;94.10;;;;;;5084810;28;20027;-65
2023/10/06 05:35:39;;;;;;;1606.72;999.90;;;34.40;94.90;;;;;;5091921;28;20020;-67
2023/10/06 05:38:13;;;;;;;1605.75;999.90;;;34.30;95.30;;;;;;5092296;28;20465;-68
2023/10/06 05:40:48;;;;;;;1595.53;999.90;;;34.30;95.10;;;;;;5091672;28;20016;-68
2023/10/06 05:43:17;;;;;;;1596.18;999.90;;;34.40;95.40;;;;;;5078662;28;20029;-67
2023/10/06 05:45:55;;;;;;;1586.65;999.90;;;34.50;94.70;;;;;;5076379;28;20390;-65
2023/10/06 05:48:22;;;;;;;1611.10;999.90;;;34.50;94.50;;;;;;5089989;28;20549;-66
2023/10/06 05:50:49;;;;;;;1597.57;999.90;;;34.60;94.30;;;;;;5089497;28;20546;-65
2023/10/06 05:53:29;;;;;;;1608.03;999.90;;;34.60;93.80;;;;;;5079426;28;20016;-64
2023/10/06 05:55:58;;;;;;;1617.35;999.90;;;34.70;93.40;;;;;;5086443;28;20028;-66
2023/10/06 05:58:24;;;;;;;1615.93;999.90;;;34.80;92.90;;;;;;5087087;28;20043;-67
2023/10/06 06:00:51;;;;;;;1619.97;999.90;;;34.90;93.10;;;;;;5089100;28;20466;-67
2023/10/06 06:03:21;;;;;;;1616.50;999.90;;;35.00;92.70;;;;;;5090433;28;20090;-68
2023/10/06 06:06:02;;;;;;;1622.65;999.90;;;35.10;93.10;;;;;;5080877;28;20495;-64
2023/10/06 06:08:32;;;;;;;1603.80;999.90;;;35.20;92.80;;;;;;5088915;28;20036;-65
2023/10/06 06:10:59;;;;;;;1609.28;999.90;;;35.20;92.40;;;;;;5088587;28;20024;-66
2023/10/06 06:13:26;;;;;;;1592.10;999.90;;;35.20;91.90;;;;;;5090814;28;20016;-67
2023/10/06 06:15:54;;;;;;;1591.53;999.90;;;35.40;91.10;;;;;;5070099;28;20499;-67
2023/10/06 06:18:21;;;;;;;1606.65;999.90;;;35.40;91.50;;;;;;5058940;28;20032;-67
2023/10/06 06:20:47;;;;;;;1607.70;999.90;;;35.40;91.50;;;;;;5080308;28;20020;-69
2023/10/06 06:23:15;;;;;;;1594.03;999.90;;;35.40;91.60;;;;;;5083842;28;20466;-69
2023/10/06 06:25:44;;;;;;;1601.53;999.90;;;35.40;90.80;;;;;;5082558;28;20040;-69
2023/10/06 06:28:12;;;;;;;1607.07;999.90;;;35.30;90.80;;;;;;5080355;28;20106;-66
2023/10/06 06:30:40;;;;;;;1598.90;999.90;;;35.30;91.10;;;;;;5079152;28;20267;-67
2023/10/06 06:33:17;;;;;;;1601.70;999.90;;;35.40;91.50;;;;;;5088176;28;20377;-68
2023/10/06 06:35:44;;;;;;;1606.90;999.90;;;35.40;91.20;;;;;;5083550;28;20028;-66
2023/10/06 06:38:12;;;;;;;1608.63;999.90;;;35.70;90.50;;;;;;5084686;28;20032;-67
2023/10/06 06:40:39;;;;;;;1601.25;999.90;;;35.70;90.60;;;;;;5079386;28;20036;-69
2023/10/06 06:43:09;;;;;;;1607.07;999.90;;;35.70;87.40;;;;;;5076277;28;20024;-67
2023/10/06 06:45:39;;;;;;;1597.38;999.90;;;35.70;88.20;;;;;;5078945;28;20425;-66
2023/10/06 06:48:13;;;;;;;1623.03;999.90;;;35.80;88.20;;;;;;5076961;28;20036;-68
2023/10/06 06:50:48;;;;;;;1615.47;999.90;;;35.80;89.40;;;;;;5087515;28;20112;-69
2023/10/06 06:53:18;;;;;;;1622.18;999.90;;;35.80;89.70;;;;;;5086775;28;20019;-68
2023/10/06 06:55:45;;;;;;;1620.53;999.90;;;35.80;88.90;;;;;;5083079;28;20100;-68
2023/10/06 06:58:16;;;;;;;1614.68;999.90;;;35.80;87.50;;;;;;5084220;28;20051;-67
2023/10/06 07:00:43;;;;;;;1590.20;999.90;;;35.80;88.60;;;;;;5082888;28;20361;-68
2023/10/06 07:03:10;;;;;;;1600.72;999.90;;;35.80;87.80;;;;;;5089267;28;20028;-69
2023/10/06 07:05:37;;;;;;;1611.00;999.90;;;35.70;87.90;;;;;;5082381;28;20110;-70
2023/10/06 07:08:04;;;;;;;1586.28;999.90;;;35.70;87.80;;;;;;5081930;28;20093;-69
2023/10/06 07:10:31;;;;;;;1599.93;999.90;;;35.70;89.30;;;;;;5084098;28;20020;-68
2023/10/06 07:13:01;;;;;;;1597.18;999.90;;;35.70;88.10;;;;;;5082654;28;20021;-67
2023/10/06 07:15:29;;;;;;;1585.63;999.90;;;35.60;89.50;;;;;;5088730;28;20025;-67
2023/10/06 07:17:58;;;;;;;1596.65;999.90;;;35.60;89.10;;;;;;5093169;28;20084;-69
2023/10/06 07:20:27;;;;;;;1606.15;999.90;;;35.50;88.00;;;;;;5093436;28;20024;-66
2023/10/06 07:23:00;;;;;;;1593.32;999.90;;;35.40;88.10;;;;;;5093168;28;20032;-66
2023/10/06 07:25:28;;;;;;;1601.93;999.90;;;35.40;89.80;;;;;;5093012;28;20176;-67
2023/10/06 07:27:57;;;;;;;1637.30;999.90;;;35.50;90.40;;;;;;5083426;28;20103;-68
2023/10/06 07:30:25;;;;;;;1615.47;999.90;;;35.50;90.40;;;;;;5082724;28;20387;-67
2023/10/06 07:32:56;;;;;;;1620.07;999.90;;;35.50;89.70;;;;;;5081184;28;20017;-67
2023/10/06 07:35:47;;;;;;;1606.47;999.90;;;35.40;89.20;;;;;;5079334;28;20019;-69
2023/10/06 07:38:14;;;;;;;1592.60;999.90;;;35.30;88.20;;;;;;5072856;28;20265;-69
2023/10/06 07:40:42;;;;;;;1601.85;999.90;;;35.40;89.40;;;;;;5073251;28;20020;-69
2023/10/06 07:43:10;;;;;;;1605.63;999.90;;;35.50;90.10;;;;;;5053898;28;20390;-69
2023/10/06 07:45:36;;;;;;;1606.97;999.90;;;35.50;89.60;;;;;;5072239;28;20107;-67
2023/10/06 07:48:07;;;;;;;1596.45;999.90;;;35.60;88.50;;;;;;5080378;28;20112;-67
2023/10/06 07:50:34;;;;;;;1613.05;999.90;;;35.70;89.00;;;;;;5075679;28;20516;-68
2023/10/06 07:53:01;;;;;;;1627.15;999.90;;;35.70;88.10;;;;;;5081812;28;20024;-68
2023/10/06 07:55:28;;;;;;;1605.05;999.90;;;35.80;87.80;;;;;;5080668;28;20021;-70
2023/10/06 07:57:54;;;;;;;1617.07;999.90;;;35.70;87.70;;;;;;5072727;28;20067;-68
2023/10/06 08:00:29;;;;;;;1599.55;999.90;;;35.60;85.30;;;;;;5072622;28;20024;-67
2023/10/06 08:02:56;;;;;;;1617.47;999.90;;;35.50;86.10;;;;;;5083371;28;20039;-67
2023/10/06 08:05:23;;;;;;;1603.57;999.90;;;35.50;88.10;;;;;;5079872;28;20608;-67
2023/10/06 08:07:50;;;;;;;1612.75;999.90;;;35.50;86.50;;;;;;5085342;28;20050;-67
2023/10/06 08:10:18;;;;;;;1614.88;999.90;;;35.50;87.30;;;;;;5076473;28;20037;-68
2023/10/06 08:12:47;;;;;;;1623.03;999.90;;;35.50;84.80;;;;;;5082535;28;20020;-68
2023/10/06 08:15:17;;;;;;;1607.10;999.90;;;35.50;85.60;;;;;;5072027;28;20437;-68
2023/10/06 08:17:53;;;;;;;1618.32;999.90;;;35.40;84.10;;;;;;5084486;28;20099;-68
2023/10/06 08:20:20;;;;;;;1617.57;999.90;;;35.40;86.10;;;;;;5087150;28;20028;-66
2023/10/06 08:22:50;;;;;;;1613.97;999.90;;;35.40;85.50;;;;;;5086586;28;20352;-71
2023/10/06 08:25:18;;;;;;;1611.80;999.90;;;35.40;84.70;;;;;;5092196;28;20082;-69
2023/10/06 08:27:46;;;;;;;1568.07;999.90;;;35.40;85.00;;;;;;5094520;28;20024;-67
2023/10/06 08:30:21;;;;;;;1562.00;999.90;;;35.40;85.30;;;;;;5087074;28;20015;-69
2023/10/06 08:32:52;;;;;;;1584.72;999.90;;;35.40;86.50;;;;;;5086416;28;20127;-66
2023/10/06 08:35:19;;;;;;;1534.13;999.90;;;35.40;86.20;;;;;;5086715;28;20016;-67
2023/10/06 08:37:52;;;;;;;1548.15;999.90;;;35.50;86.60;;;;;;5085909;28;20045;-68
2023/10/06 08:40:22;;;;;;;1618.80;999.90;;;35.50;86.60;;;;;;5081296;28;20052;-67
2023/10/06 08:42:56;;;;;;;1604.88;999.90;;;35.50;86.90;;;;;;5075842;28;20029;-68
2023/10/06 08:45:24;;;;;;;1607.32;999.90;;;35.50;86.90;;;;;;5075790;28;20024;-67
2023/10/06 08:48:01;;;;;;;1619.63;999.90;;;35.50;87.90;;;;;;5075603;28;20072;-67
2023/10/06 08:50:29;;;;;;;1612.30;999.90;;;35.50;87.50;;;;;;5075656;28;20590;-65
2023/10/06 08:52:58;;;;;;;1637.00;999.90;;;35.60;86.90;;;;;;5076264;28;20025;-68
2023/10/06 08:55:29;;;;;;;1626.95;999.90;;;35.60;87.30;;;;;;5084228;28;20043;-69
2023/10/06 08:57:58;;;;;;;1597.47;999.90;;;35.60;87.90;;;;;;5085047;28;20024;-68
2023/10/06 09:00:31;;;;;;;1560.38;999.90;;;35.60;86.30;;;;;;5075472;28;20085;-67
2023/10/06 09:03:07;;;;;;;1609.88;999.90;;;35.50;86.40;;;;;;5075462;28;20028;-69
2023/10/06 09:05:39;;;;;;;1612.53;999.90;;;35.40;86.50;;;;;;5075594;28;20105;-68
2023/10/06 09:08:10;;;;;;;1602.85;999.90;;;35.40;86.50;;;;;;5075394;28;20107;-67
2023/10/06 09:10:48;;;;;;;1614.10;999.90;;;35.40;86.70;;;;;;5080013;28;20112;-67
2023/10/06 09:13:16;;;;;;;1601.47;999.90;;;35.30;87.20;;;;;;5093284;28;20032;-69
2023/10/06 09:15:44;;;;;;;1588.47;999.90;;;35.30;86.60;;;;;;5094076;28;20474;-67
2023/10/06 09:18:19;;;;;;;1564.43;999.90;;;35.20;87.50;;;;;;5089357;28;20028;-68
2023/10/06 09:20:50;;;;;;;1584.85;999.90;;;35.20;87.50;;;;;;5094935;28;20125;-70
2023/10/06 09:23:39;;;;;;;1607.63;999.90;;;35.20;87.70;;;;;;5086331;28;20031;-70
2023/10/06 09:26:07;;;;;;;1563.53;999.90;;;35.20;88.30;;;;;;5085957;28;20085;-70
2023/10/06 09:28:36;;;;;;;1573.90;999.90;;;35.20;87.20;;;;;;5067259;28;20428;-70
2023/10/06 09:31:06;;;;;;;1581.20;999.90;;;35.20;88.50;;;;;;5090227;28;20506;-70
2023/10/06 09:33:38;;;;;;;1622.65;999.90;;;35.10;87.40;;;;;;5083919;28;20417;-69
2023/10/06 09:36:07;;;;;;;1612.03;999.90;;;35.10;88.30;;;;;;5085621;28;20043;-64
2023/10/06 09:38:36;;;;;;;1600.13;999.90;;;35.00;86.60;;;;;;5085726;28;20032;-65
2023/10/06 09:41:05;;;;;;;1605.57;999.90;;;34.90;88.00;;;;;;5089338;28;20031;-65
2023/10/06 09:43:36;;;;;;;1577.93;999.90;;;34.90;88.20;;;;;;5089444;28;20124;-64
2023/10/06 09:46:16;;;;;;;1584.43;999.90;;;34.80;88.50;;;;;;5083464;28;20134;-65
2023/10/06 09:48:43;;;;;;;1577.63;999.90;;;34.80;87.80;;;;;;5091780;28;20028;-66
2023/10/06 09:51:12;;;;;;;1593.32;999.90;;;34.70;88.50;;;;;;5084869;28;20039;-64
2023/10/06 09:53:43;;;;;;;1645.82;999.90;;;34.70;89.70;;;;;;5084865;28;20012;-66
2023/10/06 09:56:12;;;;;;;1654.38;999.90;;;34.70;89.10;;;;;;5084325;28;20016;-65
2023/10/06 09:58:49;;;;;;;1653.15;999.90;;;34.70;88.20;;;;;;5082935;28;20383;-65
2023/10/06 10:01:16;;;;;;;1642.22;999.90;;;34.60;87.90;;;;;;5088822;28;20443;-65
2023/10/06 10:03:43;;;;;;;1660.28;999.90;;;34.40;88.80;;;;;;5084993;28;20020;-63
2023/10/06 10:06:11;;;;;;;1676.47;999.90;;;34.40;89.70;;;;;;5083559;28;20036;-64
2023/10/06 10:08:41;;;;;;;1670.15;999.90;;;34.50;90.10;;;;;;5088377;28;20027;-64
2023/10/06 10:11:39;;;;;;;1653.35;999.90;;;34.40;89.50;;;;;;5090357;28;20024;-65
2023/10/06 10:14:18;;;;;;;1641.57;999.90;;;34.40;89.70;;;;;;5074841;28;20067;-65
2023/10/06 10:17:00;;;;;;;1602.30;999.90;;;34.30;90.00;;;;;;5084600;28;20024;-66
2023/10/06 10:19:28;;;;;;;1597.03;999.90;;;34.20;89.70;;;;;;5082239;28;20166;-65
2023/10/06 10:21:56;;;;;;;1452.25;999.90;;;34.20;90.40;;;;;;5083061;28;20080;-67
2023/10/06 10:24:25;;;;;;;1446.85;999.90;;;34.20;90.20;;;;;;5083182;28;20040;-66
2023/10/06 10:26:54;;;;;;;1390.18;999.90;;;34.10;89.10;;;;;;5081758;28;20104;-69
2023/10/06 10:29:24;;;;;;;1386.38;999.90;;;34.10;90.10;;;;;;5084025;28;20026;-66
2023/10/06 10:32:14;;;;;;;1385.78;999.90;;;34.10;90.10;;;;;;5080870;28;20032;-65
2023/10/06 10:35:16;;;;;;;1372.13;999.90;;;34.10;89.70;;;;;;5085958;28;20028;-65
2023/10/06 10:37:52;;;;;;;1346.07;999.90;;;34.00;90.00;;;;;;5007316;28;20081;-65
2023/10/06 10:40:25;;;;;;;1268.53;999.90;;;33.90;90.10;;;;;;5077892;28;20032;-66
2023/10/06 10:43:12;;;;;;;1230.95;999.90;;;33.90;90.00;;;;;;5086382;28;20386;-66
2023/10/06 10:45:47;;;;;;;1277.20;999.90;;;33.80;90.40;;;;;;5084788;28;20498;-65
2023/10/06 10:48:15;;;;;;;1358.53;999.90;;;33.80;90.00;;;;;;5080274;28;20043;-64
2023/10/06 10:51:05;;;;;;;1385.50;999.90;;;33.80;90.50;;;;;;5083632;28;20475;-65
2023/10/06 10:53:41;;;;;;;1386.40;999.90;;;33.80;90.00;;;;;;5083584;28;20026;-65
2023/10/06 10:56:27;;;;;;;1455.55;999.90;;;33.70;90.40;;;;;;5088114;28;20048;-65
2023/10/06 10:58:55;;;;;;;1587.03;999.90;;;33.60;90.40;;;;;;5084473;28;20025;-65
2023/10/06 11:01:29;;;;;;;1656.68;999.90;;;33.50;90.90;;;;;;5082221;28;20115;-63
2023/10/06 11:06:55;;;;;;;1649.75;999.90;;;33.40;90.80;;;;;;5083203;28;20056;-65
2023/10/06 11:09:30;;;;;;;1644.72;999.90;;;33.40;90.90;;;;;;5081761;28;20047;-66
2023/10/06 11:12:00;;;;;;;1660.57;999.90;;;33.30;91.60;;;;;;5082160;28;20020;-65
2023/10/06 11:14:28;;;;;;;1659.97;999.90;;;33.30;91.40;;;;;;5084200;28;20020;-67
2023/10/06 11:17:05;;;;;;;1647.38;999.90;;;33.30;91.80;;;;;;5084148;28;20024;-63
2023/10/06 11:19:33;;;;;;;1649.38;999.90;;;33.30;91.70;;;;;;5085774;28;20410;-65
2023/10/06 11:22:14;;;;;;;1660.93;999.90;;;33.20;91.70;;;;;;5086754;28;20054;-63
2023/10/06 11:24:44;;;;;;;1635.32;999.90;;;33.10;91.90;;;;;;5082871;28;20368;-63
2023/10/06 11:27:23;;;;;;;1642.10;999.90;;;33.00;92.10;;;;;;5078276;28;20116;-63
2023/10/06 11:29:54;;;;;;;1671.53;999.90;;;33.00;92.20;;;;;;5073077;28;20437;-63
2023/10/06 11:32:21;;;;;;;1649.97;999.90;;;32.90;92.20;;;;;;5080480;28;20185;-63
2023/10/06 11:34:49;;;;;;;1636.15;999.90;;;32.80;92.40;;;;;;5082823;28;20378;-67
2023/10/06 11:37:23;;;;;;;1552.95;999.90;;;32.80;92.50;;;;;;5081332;28;20061;-66
2023/10/06 11:39:53;;;;;;;1539.35;999.90;;;32.70;92.80;;;;;;5087527;28;20048;-67
2023/10/06 11:42:26;;;;;;;1640.72;999.90;;;32.70;92.70;;;;;;5090364;28;20504;-66
2023/10/06 11:44:57;;;;;;;1646.90;999.90;;;32.70;92.80;;;;;;5081737;28;20036;-64
2023/10/06 11:47:26;;;;;;;1639.82;999.90;;;32.60;93.00;;;;;;5088829;28;20064;-64
2023/10/06 11:49:57;;;;;;;1638.18;999.90;;;32.60;93.10;;;;;;5082011;28;20048;-64
2023/10/06 11:52:24;;;;;;;1625.03;999.90;;;32.50;93.10;;;;;;5076589;28;20028;-64
2023/10/06 11:54:55;;;;;;;1567.80;999.90;;;32.40;93.50;;;;;;5076928;28;20032;-65
2023/10/06 11:57:44;;;;;;;1497.15;999.90;;;32.40;93.80;;;;;;5077092;28;20028;-63
2023/10/06 12:00:12;;;;;;;1547.80;999.90;;;32.40;93.70;;;;;;5064580;28;20482;-64
2023/10/06 12:02:53;;;;;;;1582.20;999.90;;;32.30;93.90;;;;;;5076753;28;20032;-64
2023/10/06 12:05:24;;;;;;;1634.03;999.90;;;32.30;94.40;;;;;;5076574;28;20035;-65
2023/10/06 12:07:50;;;;;;;1552.20;999.90;;;32.30;94.50;;;;;;5076586;28;20054;-65
2023/10/06 12:10:19;;;;;;;1522.80;999.90;;;32.20;94.80;;;;;;5076371;28;20379;-65
2023/10/06 12:12:46;;;;;;;1555.22;999.90;;;32.20;95.00;;;;;;5076454;28;20123;-64
2023/10/06 12:15:14;;;;;;;1532.45;999.90;;;32.10;95.10;;;;;;5076333;28;20498;-63
2023/10/06 12:17:41;;;;;;;1605.95;999.90;;;32.10;95.70;;;;;;5076269;28;20036;-64
2023/10/06 12:20:13;;;;;;;1582.03;999.90;;;32.10;95.60;;;;;;5076261;28;20032;-63
2023/10/06 12:22:42;;;;;;;1589.57;999.90;;;32.10;95.80;;;;;;5076065;28;20513;-62
2023/10/06 12:25:14;;;;;;;1612.95;999.90;;;32.00;95.90;;;;;;5076888;28;20491;-64
2023/10/06 12:27:44;;;;;;;1620.90;999.90;;;31.90;96.40;;;;;;5076539;28;20398;-66
2023/10/06 12:30:17;;;;;;;1625.50;999.90;;;31.80;96.70;;;;;;5076732;28;20379;-63
2023/10/06 12:32:47;;;;;;;1651.10;999.90;;;31.70;96.80;;;;;;5076561;28;20526;-63